sensor_id;sensor_type;location;lat;lon;timestamp;temperature;humidity
19389;DHT22;9830;41.876;23.474;2023-11-22T00:01:10;4.80;99.90
19389;DHT22;9830;41.876;23.474;2023-11-22T00:03:36;4.70;99.90
19389;DHT22;9830;41.876;23.474;2023-11-22T00:06:02;4.70;99.90
19389;DHT22;9830;41.876;23.474;2023-11-22T00:08:27;4.70;99.90
19389;DHT22;9830;41.876;23.474;2023-11-22T00:10:54;4.70;99.90
19389;DHT22;9830;41.876;23.474;2023-11-22T00:13:20;4.70;99.90
19389;DHT22;9830;41.876;23.474;2023-11-22T00:15:46;4.60;99.90
19389;DHT22;9830;41.876;23.474;2023-11-22T00:18:11;4.70;99.90
19389;DHT22;9830;41.876;23.474;2023-11-22T00:20:37;4.70;99.90
19389;DHT22;9830;41.876;23.474;2023-11-22T00:23:03;4.70;99.90
19389;DHT22;9830;41.876;23.474;2023-11-22T00:25:31;4.80;99.90
19389;DHT22;9830;41.876;23.474;2023-11-22T00:27:58;4.90;99.90
19389;DHT22;9830;41.876;23.474;2023-11-22T00:30:23;4.80;99.90
19389;DHT22;9830;41.876;23.474;2023-11-22T00:32:49;4.90;99.90
19389;DHT22;9830;41.876;23.474;2023-11-22T00:35:15;4.80;99.90
19389;DHT22;9830;41.876;23.474;2023-11-22T00:37:40;4.80;99.90
19389;DHT22;9830;41.876;23.474;2023-11-22T00:40:07;4.90;99.90
19389;DHT22;9830;41.876;23.474;2023-11-22T00:42:41;4.90;99.90
19389;DHT22;9830;41.876;23.474;2023-11-22T00:45:09;4.90;99.90
19389;DHT22;9830;41.876;23.474;2023-11-22T00:47:35;4.90;99.90
19389;DHT22;9830;41.876;23.474;2023-11-22T00:50:02;4.80;99.90
19389;DHT22;9830;41.876;23.474;2023-11-22T00:52:30;4.80;99.90
19389;DHT22;9830;41.876;23.474;2023-11-22T00:54:56;4.80;99.90
19389;DHT22;9830;41.876;23.474;2023-11-22T00:57:21;4.90;99.90
19389;DHT22;9830;41.876;23.474;2023-11-22T00:59:47;4.90;99.90
19389;DHT22;9830;41.876;23.474;2023-11-22T01:02:13;5.00;99.90
19389;DHT22;9830;41.876;23.474;2023-11-22T01:04:39;5.00;99.90
19389;DHT22;9830;41.876;23.474;2023-11-22T01:07:05;5.00;99.90
19389;DHT22;9830;41.876;23.474;2023-11-22T01:09:32;5.00;99.90
19389;DHT22;9830;41.876;23.474;2023-11-22T01:11:58;5.00;99.90
19389;DHT22;9830;41.876;23.474;2023-11-22T01:14:24;4.90;99.90
19389;DHT22;9830;41.876;23.474;2023-11-22T01:16:51;4.90;99.90
19389;DHT22;9830;41.876;23.474;2023-11-22T01:19:17;4.90;99.90
19389;DHT22;9830;41.876;23.474;2023-11-22T01:21:43;4.90;99.90
19389;DHT22;9830;41.876;23.474;2023-11-22T01:24:09;4.90;99.90
19389;DHT22;9830;41.876;23.474;2023-11-22T01:26:35;4.90;99.90
19389;DHT22;9830;41.876;23.474;2023-11-22T01:29:00;4.90;99.90
19389;DHT22;9830;41.876;23.474;2023-11-22T01:31:28;4.90;99.90
19389;DHT22;9830;41.876;23.474;2023-11-22T01:33:54;4.90;99.90
19389;DHT22;9830;41.876;23.474;2023-11-22T01:36:20;4.90;99.90
19389;DHT22;9830;41.876;23.474;2023-11-22T01:38:45;5.00;99.90
19389;DHT22;9830;41.876;23.474;2023-11-22T01:41:12;5.00;99.90
19389;DHT22;9830;41.876;23.474;2023-11-22T01:43:39;5.00;99.90
19389;DHT22;9830;41.876;23.474;2023-11-22T01:46:07;5.00;99.90
19389;DHT22;9830;41.876;23.474;2023-11-22T01:48:34;5.00;99.90
19389;DHT22;9830;41.876;23.474;2023-11-22T01:51:02;5.10;99.90
19389;DHT22;9830;41.876;23.474;2023-11-22T01:53:28;5.10;99.90
19389;DHT22;9830;41.876;23.474;2023-11-22T01:55:55;5.20;99.90
19389;DHT22;9830;41.876;23.474;2023-11-22T01:58:21;5.20;99.90
19389;DHT22;9830;41.876;23.474;2023-11-22T02:00:51;5.20;99.90
19389;DHT22;9830;41.876;23.474;2023-11-22T02:03:18;5.30;99.90
19389;DHT22;9830;41.876;23.474;2023-11-22T02:05:45;5.30;99.90
19389;DHT22;9830;41.876;23.474;2023-11-22T02:08:11;5.40;99.90
19389;DHT22;9830;41.876;23.474;2023-11-22T02:10:38;5.50;99.90
19389;DHT22;9830;41.876;23.474;2023-11-22T02:13:04;5.50;99.90
19389;DHT22;9830;41.876;23.474;2023-11-22T02:15:33;5.40;99.90
19389;DHT22;9830;41.876;23.474;2023-11-22T02:17:59;5.40;99.90
19389;DHT22;9830;41.876;23.474;2023-11-22T02:20:24;5.40;99.90
19389;DHT22;9830;41.876;23.474;2023-11-22T02:22:50;5.40;99.90
19389;DHT22;9830;41.876;23.474;2023-11-22T02:25:16;5.40;99.90
19389;DHT22;9830;41.876;23.474;2023-11-22T02:27:42;5.30;99.90
19389;DHT22;9830;41.876;23.474;2023-11-22T02:30:08;5.30;99.90
19389;DHT22;9830;41.876;23.474;2023-11-22T02:32:34;5.30;99.90
19389;DHT22;9830;41.876;23.474;2023-11-22T02:35:00;5.30;99.90
19389;DHT22;9830;41.876;23.474;2023-11-22T02:37:26;5.30;99.90
19389;DHT22;9830;41.876;23.474;2023-11-22T02:40:06;5.30;99.90
19389;DHT22;9830;41.876;23.474;2023-11-22T02:42:35;5.30;99.90
19389;DHT22;9830;41.876;23.474;2023-11-22T02:45:00;5.30;99.90
19389;DHT22;9830;41.876;23.474;2023-11-22T02:47:26;5.30;99.90
19389;DHT22;9830;41.876;23.474;2023-11-22T02:49:52;5.50;99.90
19389;DHT22;9830;41.876;23.474;2023-11-22T02:52:20;5.50;99.90
19389;DHT22;9830;41.876;23.474;2023-11-22T02:54:47;5.50;99.90
19389;DHT22;9830;41.876;23.474;2023-11-22T02:57:13;5.50;99.90
19389;DHT22;9830;41.876;23.474;2023-11-22T02:59:43;5.50;99.90
19389;DHT22;9830;41.876;23.474;2023-11-22T03:02:09;5.50;99.90
19389;DHT22;9830;41.876;23.474;2023-11-22T03:04:34;5.50;99.90
19389;DHT22;9830;41.876;23.474;2023-11-22T03:07:00;5.40;99.90
19389;DHT22;9830;41.876;23.474;2023-11-22T03:09:26;5.50;99.90
19389;DHT22;9830;41.876;23.474;2023-11-22T03:11:52;5.50;99.90
19389;DHT22;9830;41.876;23.474;2023-11-22T03:14:18;5.40;99.90
19389;DHT22;9830;41.876;23.474;2023-11-22T03:16:44;5.60;99.90
19389;DHT22;9830;41.876;23.474;2023-11-22T03:19:10;5.50;99.90
19389;DHT22;9830;41.876;23.474;2023-11-22T03:21:39;5.50;99.90
19389;DHT22;9830;41.876;23.474;2023-11-22T03:24:05;5.50;99.90
19389;DHT22;9830;41.876;23.474;2023-11-22T03:26:31;5.50;99.90
19389;DHT22;9830;41.876;23.474;2023-11-22T03:28:57;5.50;99.90
19389;DHT22;9830;41.876;23.474;2023-11-22T03:31:22;5.50;99.90
19389;DHT22;9830;41.876;23.474;2023-11-22T03:33:48;5.50;99.90
19389;DHT22;9830;41.876;23.474;2023-11-22T03:36:14;5.50;99.90
19389;DHT22;9830;41.876;23.474;2023-11-22T03:38:40;5.50;99.90
19389;DHT22;9830;41.876;23.474;2023-11-22T03:41:05;5.50;99.90
19389;DHT22;9830;41.876;23.474;2023-11-22T03:43:31;5.40;99.90
19389;DHT22;9830;41.876;23.474;2023-11-22T03:45:57;5.50;99.90
19389;DHT22;9830;41.876;23.474;2023-11-22T03:48:22;5.50;99.90
19389;DHT22;9830;41.876;23.474;2023-11-22T03:50:49;5.40;99.90
19389;DHT22;9830;41.876;23.474;2023-11-22T03:53:15;5.40;99.90
19389;DHT22;9830;41.876;23.474;2023-11-22T03:55:41;5.40;99.90
19389;DHT22;9830;41.876;23.474;2023-11-22T03:58:06;5.40;99.90
19389;DHT22;9830;41.876;23.474;2023-11-22T04:00:33;5.50;99.90
19389;DHT22;9830;41.876;23.474;2023-11-22T04:02:59;5.50;99.90
19389;DHT22;9830;41.876;23.474;2023-11-22T04:05:27;5.50;99.90
19389;DHT22;9830;41.876;23.474;2023-11-22T04:07:53;5.40;99.90
19389;DHT22;9830;41.876;23.474;2023-11-22T04:10:19;5.50;99.90
19389;DHT22;9830;41.876;23.474;2023-11-22T04:12:46;5.40;99.90
19389;DHT22;9830;41.876;23.474;2023-11-22T04:15:13;5.40;99.90
19389;DHT22;9830;41.876;23.474;2023-11-22T04:17:40;5.40;99.90
19389;DHT22;9830;41.876;23.474;2023-11-22T04:20:09;5.40;99.90
19389;DHT22;9830;41.876;23.474;2023-11-22T04:22:36;5.40;99.90
19389;DHT22;9830;41.876;23.474;2023-11-22T04:25:02;5.40;99.90
19389;DHT22;9830;41.876;23.474;2023-11-22T04:27:29;5.30;99.90
19389;DHT22;9830;41.876;23.474;2023-11-22T04:29:55;5.30;99.90
19389;DHT22;9830;41.876;23.474;2023-11-22T04:32:20;5.30;99.90
19389;DHT22;9830;41.876;23.474;2023-11-22T04:34:47;5.40;99.90
19389;DHT22;9830;41.876;23.474;2023-11-22T04:37:13;5.50;99.90
19389;DHT22;9830;41.876;23.474;2023-11-22T04:39:42;5.40;99.90
19389;DHT22;9830;41.876;23.474;2023-11-22T04:42:07;5.40;99.90
19389;DHT22;9830;41.876;23.474;2023-11-22T04:44:33;5.50;99.90
19389;DHT22;9830;41.876;23.474;2023-11-22T04:46:58;5.40;99.90
19389;DHT22;9830;41.876;23.474;2023-11-22T04:49:25;5.40;99.90
19389;DHT22;9830;41.876;23.474;2023-11-22T04:51:51;5.40;99.90
19389;DHT22;9830;41.876;23.474;2023-11-22T04:54:17;5.40;99.90
19389;DHT22;9830;41.876;23.474;2023-11-22T04:56:43;5.30;99.90
19389;DHT22;9830;41.876;23.474;2023-11-22T04:59:09;5.30;99.90
19389;DHT22;9830;41.876;23.474;2023-11-22T05:01:35;5.30;99.90
19389;DHT22;9830;41.876;23.474;2023-11-22T05:04:00;5.40;99.90
19389;DHT22;9830;41.876;23.474;2023-11-22T05:06:26;5.40;99.90
19389;DHT22;9830;41.876;23.474;2023-11-22T05:08:53;5.40;99.90
19389;DHT22;9830;41.876;23.474;2023-11-22T05:11:20;5.40;99.90
19389;DHT22;9830;41.876;23.474;2023-11-22T05:13:46;5.40;99.90
19389;DHT22;9830;41.876;23.474;2023-11-22T05:16:12;5.40;99.90
19389;DHT22;9830;41.876;23.474;2023-11-22T05:18:38;5.50;99.90
19389;DHT22;9830;41.876;23.474;2023-11-22T05:21:04;5.40;99.90
19389;DHT22;9830;41.876;23.474;2023-11-22T05:23:30;5.40;99.90
19389;DHT22;9830;41.876;23.474;2023-11-22T05:25:59;5.40;99.90
19389;DHT22;9830;41.876;23.474;2023-11-22T05:28:30;5.50;99.90
19389;DHT22;9830;41.876;23.474;2023-11-22T05:30:56;5.50;99.90
19389;DHT22;9830;41.876;23.474;2023-11-22T05:33:21;5.50;99.90
19389;DHT22;9830;41.876;23.474;2023-11-22T05:35:47;5.50;99.90
19389;DHT22;9830;41.876;23.474;2023-11-22T05:38:13;5.50;99.90
19389;DHT22;9830;41.876;23.474;2023-11-22T05:40:39;5.50;99.90
19389;DHT22;9830;41.876;23.474;2023-11-22T05:43:05;5.50;99.90
19389;DHT22;9830;41.876;23.474;2023-11-22T05:45:30;5.50;99.90
19389;DHT22;9830;41.876;23.474;2023-11-22T05:47:56;5.50;99.90
19389;DHT22;9830;41.876;23.474;2023-11-22T05:50:22;5.60;99.90
19389;DHT22;9830;41.876;23.474;2023-11-22T05:52:47;5.70;99.90
19389;DHT22;9830;41.876;23.474;2023-11-22T05:55:13;5.80;99.90
19389;DHT22;9830;41.876;23.474;2023-11-22T05:57:40;5.90;99.90
19389;DHT22;9830;41.876;23.474;2023-11-22T06:00:07;5.90;99.90
19389;DHT22;9830;41.876;23.474;2023-11-22T06:02:33;5.90;99.90
19389;DHT22;9830;41.876;23.474;2023-11-22T06:04:58;5.90;99.90
19389;DHT22;9830;41.876;23.474;2023-11-22T06:07:24;6.00;99.90
19389;DHT22;9830;41.876;23.474;2023-11-22T06:09:50;6.10;99.90
19389;DHT22;9830;41.876;23.474;2023-11-22T06:12:15;6.10;99.90
19389;DHT22;9830;41.876;23.474;2023-11-22T06:14:41;6.20;99.90
19389;DHT22;9830;41.876;23.474;2023-11-22T06:17:07;6.30;99.90
19389;DHT22;9830;41.876;23.474;2023-11-22T06:19:32;6.30;99.90
19389;DHT22;9830;41.876;23.474;2023-11-22T06:21:58;6.40;99.90
19389;DHT22;9830;41.876;23.474;2023-11-22T06:24:24;6.40;99.90
19389;DHT22;9830;41.876;23.474;2023-11-22T06:26:51;6.50;99.90
19389;DHT22;9830;41.876;23.474;2023-11-22T06:29:16;6.50;99.90
19389;DHT22;9830;41.876;23.474;2023-11-22T06:31:42;6.50;99.90
19389;DHT22;9830;41.876;23.474;2023-11-22T06:34:08;6.70;99.90
19389;DHT22;9830;41.876;23.474;2023-11-22T06:36:34;6.80;99.90
19389;DHT22;9830;41.876;23.474;2023-11-22T06:39:00;6.80;99.90
19389;DHT22;9830;41.876;23.474;2023-11-22T06:41:26;6.90;99.90
19389;DHT22;9830;41.876;23.474;2023-11-22T06:43:51;6.70;99.90
19389;DHT22;9830;41.876;23.474;2023-11-22T06:46:18;6.60;99.90
19389;DHT22;9830;41.876;23.474;2023-11-22T06:48:44;6.70;99.90
19389;DHT22;9830;41.876;23.474;2023-11-22T06:51:09;6.60;99.90
19389;DHT22;9830;41.876;23.474;2023-11-22T06:53:35;6.70;99.90
19389;DHT22;9830;41.876;23.474;2023-11-22T06:56:01;6.60;99.90
19389;DHT22;9830;41.876;23.474;2023-11-22T06:58:27;6.50;99.90
19389;DHT22;9830;41.876;23.474;2023-11-22T07:00:52;6.50;99.90
19389;DHT22;9830;41.876;23.474;2023-11-22T07:03:18;6.60;99.90
19389;DHT22;9830;41.876;23.474;2023-11-22T07:05:44;6.60;99.90
19389;DHT22;9830;41.876;23.474;2023-11-22T07:08:10;6.60;99.90
19389;DHT22;9830;41.876;23.474;2023-11-22T07:10:36;6.60;99.90
19389;DHT22;9830;41.876;23.474;2023-11-22T07:13:02;6.60;99.90
19389;DHT22;9830;41.876;23.474;2023-11-22T07:15:28;6.70;99.90
19389;DHT22;9830;41.876;23.474;2023-11-22T07:17:54;6.70;99.90
19389;DHT22;9830;41.876;23.474;2023-11-22T07:20:20;6.70;99.90
19389;DHT22;9830;41.876;23.474;2023-11-22T07:22:46;6.70;99.90
19389;DHT22;9830;41.876;23.474;2023-11-22T07:25:12;6.70;99.90
19389;DHT22;9830;41.876;23.474;2023-11-22T07:27:45;6.70;99.90
19389;DHT22;9830;41.876;23.474;2023-11-22T07:30:12;6.90;99.90
19389;DHT22;9830;41.876;23.474;2023-11-22T07:32:39;7.10;99.90
19389;DHT22;9830;41.876;23.474;2023-11-22T07:35:06;7.20;99.90
19389;DHT22;9830;41.876;23.474;2023-11-22T07:37:34;7.30;99.90
19389;DHT22;9830;41.876;23.474;2023-11-22T07:40:01;7.30;99.90
19389;DHT22;9830;41.876;23.474;2023-11-22T07:42:29;7.30;99.90
19389;DHT22;9830;41.876;23.474;2023-11-22T07:44:54;7.40;99.90
19389;DHT22;9830;41.876;23.474;2023-11-22T07:47:24;7.30;99.90
19389;DHT22;9830;41.876;23.474;2023-11-22T07:49:53;7.30;99.90
19389;DHT22;9830;41.876;23.474;2023-11-22T07:52:21;7.50;99.90
19389;DHT22;9830;41.876;23.474;2023-11-22T07:54:47;7.60;99.90
19389;DHT22;9830;41.876;23.474;2023-11-22T07:57:13;7.60;99.90
19389;DHT22;9830;41.876;23.474;2023-11-22T07:59:39;7.60;99.90
19389;DHT22;9830;41.876;23.474;2023-11-22T08:02:05;7.60;99.90
19389;DHT22;9830;41.876;23.474;2023-11-22T08:04:36;7.50;99.90
19389;DHT22;9830;41.876;23.474;2023-11-22T08:07:03;7.50;99.90
19389;DHT22;9830;41.876;23.474;2023-11-22T08:09:29;7.40;99.90
19389;DHT22;9830;41.876;23.474;2023-11-22T08:11:58;7.50;99.90
19389;DHT22;9830;41.876;23.474;2023-11-22T08:14:26;7.60;99.90
19389;DHT22;9830;41.876;23.474;2023-11-22T08:16:53;7.60;99.90
19389;DHT22;9830;41.876;23.474;2023-11-22T08:19:19;7.60;99.90
19389;DHT22;9830;41.876;23.474;2023-11-22T08:21:45;7.50;99.90
19389;DHT22;9830;41.876;23.474;2023-11-22T08:24:10;7.50;99.90
19389;DHT22;9830;41.876;23.474;2023-11-22T08:26:38;7.50;99.90
19389;DHT22;9830;41.876;23.474;2023-11-22T08:29:04;7.50;99.90
19389;DHT22;9830;41.876;23.474;2023-11-22T08:31:30;7.50;99.90
19389;DHT22;9830;41.876;23.474;2023-11-22T08:33:56;7.50;99.90
19389;DHT22;9830;41.876;23.474;2023-11-22T08:36:22;7.50;99.90
19389;DHT22;9830;41.876;23.474;2023-11-22T08:38:49;7.40;99.90
19389;DHT22;9830;41.876;23.474;2023-11-22T08:41:15;7.50;99.90
19389;DHT22;9830;41.876;23.474;2023-11-22T08:43:40;7.50;99.90
19389;DHT22;9830;41.876;23.474;2023-11-22T08:46:06;7.60;99.90
19389;DHT22;9830;41.876;23.474;2023-11-22T08:48:33;7.60;99.90
19389;DHT22;9830;41.876;23.474;2023-11-22T08:51:00;7.70;99.90
19389;DHT22;9830;41.876;23.474;2023-11-22T08:53:26;7.80;99.90
19389;DHT22;9830;41.876;23.474;2023-11-22T08:55:52;7.90;99.90
19389;DHT22;9830;41.876;23.474;2023-11-22T08:58:20;8.10;99.90
19389;DHT22;9830;41.876;23.474;2023-11-22T09:00:46;8.30;99.90
19389;DHT22;9830;41.876;23.474;2023-11-22T09:03:12;8.30;99.90
19389;DHT22;9830;41.876;23.474;2023-11-22T09:05:42;8.30;99.90
19389;DHT22;9830;41.876;23.474;2023-11-22T09:08:08;8.20;99.90
19389;DHT22;9830;41.876;23.474;2023-11-22T09:10:39;8.20;99.90
19389;DHT22;9830;41.876;23.474;2023-11-22T09:13:05;8.30;99.90
19389;DHT22;9830;41.876;23.474;2023-11-22T09:15:31;8.30;99.90
19389;DHT22;9830;41.876;23.474;2023-11-22T09:17:59;8.40;99.90
19389;DHT22;9830;41.876;23.474;2023-11-22T09:20:25;8.40;99.90
19389;DHT22;9830;41.876;23.474;2023-11-22T09:22:53;8.30;99.90
19389;DHT22;9830;41.876;23.474;2023-11-22T09:27:46;8.30;99.90
19389;DHT22;9830;41.876;23.474;2023-11-22T09:30:15;8.30;99.90
19389;DHT22;9830;41.876;23.474;2023-11-22T09:33:04;8.30;99.90
19389;DHT22;9830;41.876;23.474;2023-11-22T09:35:31;8.30;99.90
19389;DHT22;9830;41.876;23.474;2023-11-22T09:38:00;8.30;99.90
19389;DHT22;9830;41.876;23.474;2023-11-22T09:40:27;8.30;99.90
19389;DHT22;9830;41.876;23.474;2023-11-22T09:42:58;8.40;99.90
19389;DHT22;9830;41.876;23.474;2023-11-22T09:45:25;8.50;99.90
19389;DHT22;9830;41.876;23.474;2023-11-22T09:47:51;8.60;99.90
19389;DHT22;9830;41.876;23.474;2023-11-22T09:50:40;8.70;99.90
19389;DHT22;9830;41.876;23.474;2023-11-22T09:53:11;8.80;99.90
19389;DHT22;9830;41.876;23.474;2023-11-22T09:55:41;9.00;99.90
19389;DHT22;9830;41.876;23.474;2023-11-22T09:58:14;9.00;99.90
19389;DHT22;9830;41.876;23.474;2023-11-22T10:00:42;9.30;99.90
19389;DHT22;9830;41.876;23.474;2023-11-22T10:03:10;9.30;99.90
19389;DHT22;9830;41.876;23.474;2023-11-22T10:05:39;9.10;99.90
19389;DHT22;9830;41.876;23.474;2023-11-22T10:08:05;9.10;99.90
19389;DHT22;9830;41.876;23.474;2023-11-22T10:10:32;9.00;99.90
19389;DHT22;9830;41.876;23.474;2023-11-22T10:13:00;9.10;99.90
19389;DHT22;9830;41.876;23.474;2023-11-22T10:15:28;9.10;99.90
19389;DHT22;9830;41.876;23.474;2023-11-22T10:17:55;9.30;99.90
19389;DHT22;9830;41.876;23.474;2023-11-22T10:20:39;9.40;99.90
19389;DHT22;9830;41.876;23.474;2023-11-22T10:23:11;9.40;99.90
19389;DHT22;9830;41.876;23.474;2023-11-22T10:25:49;9.40;99.90
19389;DHT22;9830;41.876;23.474;2023-11-22T10:28:17;9.30;99.90
19389;DHT22;9830;41.876;23.474;2023-11-22T10:30:46;9.20;99.90
19389;DHT22;9830;41.876;23.474;2023-11-22T10:33:12;9.20;99.90
19389;DHT22;9830;41.876;23.474;2023-11-22T10:35:44;9.20;99.90
19389;DHT22;9830;41.876;23.474;2023-11-22T10:38:10;9.00;99.90
19389;DHT22;9830;41.876;23.474;2023-11-22T10:40:38;8.90;99.90
19389;DHT22;9830;41.876;23.474;2023-11-22T10:43:05;8.80;99.90
19389;DHT22;9830;41.876;23.474;2023-11-22T10:45:30;9.00;99.90
19389;DHT22;9830;41.876;23.474;2023-11-22T10:47:56;9.00;99.90
19389;DHT22;9830;41.876;23.474;2023-11-22T10:50:23;8.90;99.90
19389;DHT22;9830;41.876;23.474;2023-11-22T10:52:50;8.90;99.90
19389;DHT22;9830;41.876;23.474;2023-11-22T10:55:21;9.00;99.90
19389;DHT22;9830;41.876;23.474;2023-11-22T10:57:51;9.10;99.90
19389;DHT22;9830;41.876;23.474;2023-11-22T11:00:19;9.30;99.90
19389;DHT22;9830;41.876;23.474;2023-11-22T11:02:51;9.30;99.90
19389;DHT22;9830;41.876;23.474;2023-11-22T11:05:21;9.30;99.90
19389;DHT22;9830;41.876;23.474;2023-11-22T11:08:07;9.20;99.90
19389;DHT22;9830;41.876;23.474;2023-11-22T11:10:43;9.10;99.90
19389;DHT22;9830;41.876;23.474;2023-11-22T11:13:10;9.20;99.90
19389;DHT22;9830;41.876;23.474;2023-11-22T11:15:40;9.20;99.90
19389;DHT22;9830;41.876;23.474;2023-11-22T11:18:11;9.10;99.90
19389;DHT22;9830;41.876;23.474;2023-11-22T11:20:57;9.00;99.90
19389;DHT22;9830;41.876;23.474;2023-11-22T11:23:25;9.10;99.90
19389;DHT22;9830;41.876;23.474;2023-11-22T11:25:56;9.10;99.90
19389;DHT22;9830;41.876;23.474;2023-11-22T11:28:23;9.00;99.90
19389;DHT22;9830;41.876;23.474;2023-11-22T11:30:53;9.10;99.90
19389;DHT22;9830;41.876;23.474;2023-11-22T11:38:51;9.40;99.90
19389;DHT22;9830;41.876;23.474;2023-11-22T11:41:17;9.40;99.90
19389;DHT22;9830;41.876;23.474;2023-11-22T11:43:47;9.50;99.90
19389;DHT22;9830;41.876;23.474;2023-11-22T11:46:15;9.60;99.90
19389;DHT22;9830;41.876;23.474;2023-11-22T11:48:52;9.70;99.90
19389;DHT22;9830;41.876;23.474;2023-11-22T11:51:20;9.70;99.90
19389;DHT22;9830;41.876;23.474;2023-11-22T11:53:46;9.70;99.90
19389;DHT22;9830;41.876;23.474;2023-11-22T11:56:13;9.80;99.90
19389;DHT22;9830;41.876;23.474;2023-11-22T11:58:45;9.90;99.90
19389;DHT22;9830;41.876;23.474;2023-11-22T12:01:18;10.00;99.90
19389;DHT22;9830;41.876;23.474;2023-11-22T12:03:48;9.90;99.90
19389;DHT22;9830;41.876;23.474;2023-11-22T12:06:18;10.00;99.90
19389;DHT22;9830;41.876;23.474;2023-11-22T12:08:45;9.90;99.90
19389;DHT22;9830;41.876;23.474;2023-11-22T12:11:13;9.90;99.90
19389;DHT22;9830;41.876;23.474;2023-11-22T12:13:39;9.90;99.90
19389;DHT22;9830;41.876;23.474;2023-11-22T12:16:08;10.00;99.90
19389;DHT22;9830;41.876;23.474;2023-11-22T12:18:46;10.00;99.90
19389;DHT22;9830;41.876;23.474;2023-11-22T12:21:14;10.30;99.90
19389;DHT22;9830;41.876;23.474;2023-11-22T12:23:41;10.30;99.90
19389;DHT22;9830;41.876;23.474;2023-11-22T12:26:15;10.20;99.90
19389;DHT22;9830;41.876;23.474;2023-11-22T12:28:44;10.40;99.90
19389;DHT22;9830;41.876;23.474;2023-11-22T12:31:12;10.60;99.90
19389;DHT22;9830;41.876;23.474;2023-11-22T12:33:38;10.80;99.90
19389;DHT22;9830;41.876;23.474;2023-11-22T12:36:07;11.10;99.90
19389;DHT22;9830;41.876;23.474;2023-11-22T12:38:37;11.30;99.90
19389;DHT22;9830;41.876;23.474;2023-11-22T12:41:05;11.40;99.90
19389;DHT22;9830;41.876;23.474;2023-11-22T12:43:35;11.70;99.90
19389;DHT22;9830;41.876;23.474;2023-11-22T12:46:02;11.70;99.90
19389;DHT22;9830;41.876;23.474;2023-11-22T12:48:28;11.50;99.90
19389;DHT22;9830;41.876;23.474;2023-11-22T12:50:58;11.20;99.90
19389;DHT22;9830;41.876;23.474;2023-11-22T12:53:24;11.10;99.90
19389;DHT22;9830;41.876;23.474;2023-11-22T12:55:53;10.90;99.90
19389;DHT22;9830;41.876;23.474;2023-11-22T12:58:20;11.00;99.90
19389;DHT22;9830;41.876;23.474;2023-11-22T13:00:47;10.70;99.90
19389;DHT22;9830;41.876;23.474;2023-11-22T13:03:14;10.50;99.90
19389;DHT22;9830;41.876;23.474;2023-11-22T13:05:41;10.50;99.90
19389;DHT22;9830;41.876;23.474;2023-11-22T13:08:14;10.50;99.90
19389;DHT22;9830;41.876;23.474;2023-11-22T13:10:46;10.60;99.90
19389;DHT22;9830;41.876;23.474;2023-11-22T13:13:14;10.50;99.90
19389;DHT22;9830;41.876;23.474;2023-11-22T13:15:40;10.40;99.90
19389;DHT22;9830;41.876;23.474;2023-11-22T13:18:08;10.20;99.90
19389;DHT22;9830;41.876;23.474;2023-11-22T13:20:34;10.10;99.90
19389;DHT22;9830;41.876;23.474;2023-11-22T13:23:00;10.00;99.90
19389;DHT22;9830;41.876;23.474;2023-11-22T13:25:26;10.00;99.90
19389;DHT22;9830;41.876;23.474;2023-11-22T13:27:52;10.00;99.90
19389;DHT22;9830;41.876;23.474;2023-11-22T13:30:22;10.00;99.90
19389;DHT22;9830;41.876;23.474;2023-11-22T13:32:51;10.20;99.90
19389;DHT22;9830;41.876;23.474;2023-11-22T13:35:18;10.20;99.90
19389;DHT22;9830;41.876;23.474;2023-11-22T13:37:45;10.00;99.90
19389;DHT22;9830;41.876;23.474;2023-11-22T13:40:16;9.90;99.90
19389;DHT22;9830;41.876;23.474;2023-11-22T13:42:46;10.00;99.90
19389;DHT22;9830;41.876;23.474;2023-11-22T13:45:13;10.10;99.90
19389;DHT22;9830;41.876;23.474;2023-11-22T13:47:53;10.00;99.90
19389;DHT22;9830;41.876;23.474;2023-11-22T13:50:23;10.00;99.90
19389;DHT22;9830;41.876;23.474;2023-11-22T13:52:52;9.80;99.90
19389;DHT22;9830;41.876;23.474;2023-11-22T13:55:18;9.90;99.90
19389;DHT22;9830;41.876;23.474;2023-11-22T13:57:51;10.00;99.90
19389;DHT22;9830;41.876;23.474;2023-11-22T14:00:18;9.90;99.90
19389;DHT22;9830;41.876;23.474;2023-11-22T14:02:46;9.90;99.90
19389;DHT22;9830;41.876;23.474;2023-11-22T14:05:11;9.90;99.90
19389;DHT22;9830;41.876;23.474;2023-11-22T14:07:37;9.80;99.90
19389;DHT22;9830;41.876;23.474;2023-11-22T14:10:04;9.70;99.90
19389;DHT22;9830;41.876;23.474;2023-11-22T14:12:32;9.70;99.90
19389;DHT22;9830;41.876;23.474;2023-11-22T14:14:58;9.70;99.90
19389;DHT22;9830;41.876;23.474;2023-11-22T14:17:24;9.60;99.90
19389;DHT22;9830;41.876;23.474;2023-11-22T14:19:54;9.60;99.90
19389;DHT22;9830;41.876;23.474;2023-11-22T14:22:21;9.50;99.90
19389;DHT22;9830;41.876;23.474;2023-11-22T14:24:51;9.50;99.90
19389;DHT22;9830;41.876;23.474;2023-11-22T14:27:17;9.30;99.90
19389;DHT22;9830;41.876;23.474;2023-11-22T14:29:43;9.20;99.90
19389;DHT22;9830;41.876;23.474;2023-11-22T14:32:12;9.20;99.90
19389;DHT22;9830;41.876;23.474;2023-11-22T14:34:38;9.20;99.90
19389;DHT22;9830;41.876;23.474;2023-11-22T14:37:04;9.10;99.90
19389;DHT22;9830;41.876;23.474;2023-11-22T14:39:31;9.00;99.90
19389;DHT22;9830;41.876;23.474;2023-11-22T14:41:56;8.90;99.90
19389;DHT22;9830;41.876;23.474;2023-11-22T14:44:22;8.90;99.90
19389;DHT22;9830;41.876;23.474;2023-11-22T14:46:48;8.80;99.90
19389;DHT22;9830;41.876;23.474;2023-11-22T14:49:14;8.80;99.90
19389;DHT22;9830;41.876;23.474;2023-11-22T14:51:40;8.70;99.90
19389;DHT22;9830;41.876;23.474;2023-11-22T14:54:06;8.90;99.90
19389;DHT22;9830;41.876;23.474;2023-11-22T14:56:32;8.80;99.90
19389;DHT22;9830;41.876;23.474;2023-11-22T14:58:59;8.70;99.90
19389;DHT22;9830;41.876;23.474;2023-11-22T15:01:25;8.60;99.90
19389;DHT22;9830;41.876;23.474;2023-11-22T15:03:52;8.50;99.90
19389;DHT22;9830;41.876;23.474;2023-11-22T15:06:20;8.40;99.90
19389;DHT22;9830;41.876;23.474;2023-11-22T15:08:46;8.40;99.90
19389;DHT22;9830;41.876;23.474;2023-11-22T15:11:13;8.50;99.90
19389;DHT22;9830;41.876;23.474;2023-11-22T15:13:40;8.40;99.90
19389;DHT22;9830;41.876;23.474;2023-11-22T15:16:06;8.30;99.90
19389;DHT22;9830;41.876;23.474;2023-11-22T15:18:31;8.20;99.90
19389;DHT22;9830;41.876;23.474;2023-11-22T15:20:57;8.10;99.90
19389;DHT22;9830;41.876;23.474;2023-11-22T15:23:23;8.10;99.90
19389;DHT22;9830;41.876;23.474;2023-11-22T15:25:49;8.10;99.90
19389;DHT22;9830;41.876;23.474;2023-11-22T15:28:14;8.00;99.90
19389;DHT22;9830;41.876;23.474;2023-11-22T15:30:48;8.00;99.90
19389;DHT22;9830;41.876;23.474;2023-11-22T15:33:25;8.00;99.90
19389;DHT22;9830;41.876;23.474;2023-11-22T15:35:51;7.90;99.90
19389;DHT22;9830;41.876;23.474;2023-11-22T15:38:17;7.90;99.90
19389;DHT22;9830;41.876;23.474;2023-11-22T15:40:42;7.80;99.90
19389;DHT22;9830;41.876;23.474;2023-11-22T15:43:09;7.70;99.90
19389;DHT22;9830;41.876;23.474;2023-11-22T15:45:34;7.60;99.90
19389;DHT22;9830;41.876;23.474;2023-11-22T15:48:05;7.50;99.90
19389;DHT22;9830;41.876;23.474;2023-11-22T15:50:30;7.40;99.90
19389;DHT22;9830;41.876;23.474;2023-11-22T15:52:58;7.30;99.90